Time;durP1;ratioP1;P1;durP2;ratioP2;P2;SDS_P1;SDS_P2;PMS_P1;PMS_P2;Temp;Humidity;BMP_temperature;BMP_pressure;BME280_temperature;BME280_humidity;BME280_pressure;Samples;Min_cycle;Max_cycle;Signal;HPM_P1;HPM_P2
2023/03/16 00:02:14;;;;;;;9.43;2.25;;;;;;;;;;4989123;28;20185;-44
2023/03/16 00:04:48;;;;;;;4.93;1.97;;;;;;;;;;4988305;28;20153;-52
2023/03/16 00:07:15;;;;;;;10.45;3.08;;;;;;;;;;4989521;28;20081;-50
2023/03/16 00:09:42;;;;;;;14.35;3.22;;;;;;;;;;4988976;28;20137;-46
2023/03/16 00:12:17;;;;;;;16.77;3.17;;;;;;;;;;4984146;28;20057;-49
2023/03/16 00:14:45;;;;;;;17.10;2.97;;;;;;;;;;4988953;28;20057;-46
2023/03/16 00:17:20;;;;;;;11.47;2.40;;;;;;;;;;4989953;28;20058;-46
2023/03/16 00:19:50;;;;;;;11.23;2.70;;;;;;;;;;4987865;28;20100;-46
2023/03/16 00:22:17;;;;;;;11.40;2.80;;;;;;;;;;4988351;28;20054;-46
2023/03/16 00:24:51;;;;;;;7.28;2.97;;;;;;;;;;4993210;28;21038;-47
2023/03/16 00:27:21;;;;;;;12.33;2.73;;;;;;;;;;4987944;28;20753;-57
2023/03/16 00:29:55;;;;;;;8.23;2.30;;;;;;;;;;4989158;28;20100;-52
2023/03/16 00:32:27;;;;;;;8.93;2.30;;;;;;;;;;4988877;28;20057;-51
2023/03/16 00:34:55;;;;;;;9.63;2.40;;;;;;;;;;4991458;28;20097;-49
2023/03/16 00:37:29;;;;;;;10.67;2.60;;;;;;;;;;4982300;28;20138;-53
2023/03/16 00:39:57;;;;;;;14.07;2.37;;;;;;;;;;4991220;28;20414;-49
2023/03/16 00:42:33;;;;;;;5.57;2.23;;;;;;;;;;4990947;28;20146;-52
2023/03/16 00:45:07;;;;;;;5.67;2.03;;;;;;;;;;5000699;28;20510;-51
2023/03/16 00:47:41;;;;;;;9.20;2.70;;;;;;;;;;4990033;28;20153;-51
2023/03/16 00:50:15;;;;;;;11.43;2.43;;;;;;;;;;4987017;28;20141;-50
2023/03/16 00:52:42;;;;;;;;;;;;;;;;;;4987081;28;20065;-52
2023/03/16 00:55:10;;;;;;;9.83;2.63;;;;;;;;;;4987258;28;19930;-60
2023/03/16 00:57:44;;;;;;;6.97;2.00;;;;;;;;;;4989246;28;20062;-49
2023/03/16 01:00:14;;;;;;;14.05;2.25;;;;;;;;;;4991540;28;20061;-48
2023/03/16 01:02:48;;;;;;;16.87;2.63;;;;;;;;;;4985705;28;20050;-50
2023/03/16 01:05:15;;;;;;;11.35;2.58;;;;;;;;;;4986856;28;20105;-47
2023/03/16 01:07:43;;;;;;;5.78;2.03;;;;;;;;;;4989783;28;20149;-45
2023/03/16 01:10:17;;;;;;;8.37;2.30;;;;;;;;;;4987223;28;20056;-45
2023/03/16 01:12:44;;;;;;;3.42;2.05;;;;;;;;;;4989179;28;20065;-48
2023/03/16 01:15:18;;;;;;;9.63;2.30;;;;;;;;;;4988012;28;20583;-45
2023/03/16 01:17:45;;;;;;;;;;;;;;;;;;4987140;28;20104;-45
2023/03/16 01:20:19;;;;;;;13.70;2.40;;;;;;;;;;4989367;28;20404;-49
2023/03/16 01:22:53;;;;;;;6.03;2.30;;;;;;;;;;4990813;28;20124;-51
2023/03/16 01:25:27;;;;;;;8.50;2.20;;;;;;;;;;4989276;28;20397;-50
2023/03/16 01:27:54;;;;;;;;;;;;;;;;;;4993913;28;20056;-50
2023/03/16 01:30:21;;;;;;;9.37;2.60;;;;;;;;;;4989321;28;19956;-49
2023/03/16 01:32:55;;;;;;;13.77;2.10;;;;;;;;;;4983481;28;20054;-53
2023/03/16 01:35:23;;;;;;;;;;;;;;;;;;4987559;28;20059;-49
2023/03/16 01:37:57;;;;;;;7.73;2.30;;;;;;;;;;4987538;28;19979;-49
2023/03/16 01:40:24;;;;;;;;;;;;;;;;;;4989165;28;20417;-49
2023/03/16 01:43:00;;;;;;;5.30;2.20;;;;;;;;;;4988497;28;19925;-54
2023/03/16 01:45:52;;;;;;;5.77;2.27;;;;;;;;;;4986668;28;20065;-50
2023/03/16 01:48:26;;;;;;;8.93;2.40;;;;;;;;;;4987617;28;20121;-50
2023/03/16 01:50:55;;;;;;;4.50;2.00;;;;;;;;;;4986050;28;20067;-50
2023/03/16 01:53:23;;;;;;;6.30;2.63;;;;;;;;;;4987346;28;20050;-50
2023/03/16 01:55:59;;;;;;;10.23;2.57;;;;;;;;;;4987311;28;20050;-53
2023/03/16 01:58:27;;;;;;;13.60;2.40;;;;;;;;;;4986608;28;20100;-54
2023/03/16 02:01:02;;;;;;;7.67;2.70;;;;;;;;;;4988166;28;20046;-53
2023/03/16 02:03:33;;;;;;;10.23;3.13;;;;;;;;;;4985178;28;20158;-53
2023/03/16 02:06:17;;;;;;;9.80;3.47;;;;;;;;;;4988172;28;20054;-54
2023/03/16 02:08:45;;;;;;;10.43;4.80;;;;;;;;;;4989147;28;20165;-53
2023/03/16 02:11:40;;;;;;;8.10;3.50;;;;;;;;;;4987177;28;20060;-50
2023/03/16 02:14:14;;;;;;;9.97;3.43;;;;;;;;;;4988699;28;20516;-57
2023/03/16 02:16:48;;;;;;;8.37;2.37;;;;;;;;;;4991273;28;20076;-55
2023/03/16 02:19:42;;;;;;;6.27;2.73;;;;;;;;;;4982046;28;20153;-54
2023/03/16 02:22:16;;;;;;;8.73;2.70;;;;;;;;;;4967346;28;20141;-62
2023/03/16 02:24:43;;;;;;;;;;;;;;;;;;4986078;28;20628;-50
2023/03/16 02:27:34;;;;;;;8.33;2.43;;;;;;;;;;4984621;28;20010;-50
2023/03/16 02:30:06;;;;;;;9.23;2.30;;;;;;;;;;4989090;28;20078;-49
2023/03/16 02:32:41;;;;;;;9.13;2.57;;;;;;;;;;4988170;28;20133;-51
2023/03/16 02:35:09;;;;;;;8.67;2.67;;;;;;;;;;4987034;28;20053;-52
2023/03/16 02:37:43;;;;;;;9.90;2.40;;;;;;;;;;4984615;28;20054;-49
2023/03/16 02:40:10;;;;;;;;;;;;;;;;;;4985247;28;20050;-51
2023/03/16 02:42:37;;;;;;;11.53;2.60;;;;;;;;;;4986672;28;20270;-49
2023/03/16 02:45:19;;;;;;;7.87;2.47;;;;;;;;;;4978962;28;20502;-49
2023/03/16 02:47:54;;;;;;;8.27;2.03;;;;;;;;;;4967767;28;20118;-59
2023/03/16 02:50:28;;;;;;;9.37;2.20;;;;;;;;;;4967132;28;20050;-48
2023/03/16 02:52:55;;;;;;;6.83;2.33;;;;;;;;;;4969106;28;20063;-51
2023/03/16 02:55:29;;;;;;;14.33;2.70;;;;;;;;;;4971454;28;20050;-50
2023/03/16 02:57:56;;;;;;;7.63;2.35;;;;;;;;;;4964193;28;20474;-49
2023/03/16 03:00:23;;;;;;;8.98;2.35;;;;;;;;;;4968112;28;20186;-46
2023/03/16 03:02:57;;;;;;;7.83;2.17;;;;;;;;;;4970635;28;20047;-50
2023/03/16 03:05:24;;;;;;;7.30;2.80;;;;;;;;;;4968260;28;20054;-58
2023/03/16 03:07:58;;;;;;;8.00;2.33;;;;;;;;;;4970890;28;20050;-54
2023/03/16 03:10:25;;;;;;;;;;;;;;;;;;4972016;28;20153;-59
2023/03/16 03:12:53;;;;;;;4.73;2.27;;;;;;;;;;4970191;28;19922;-57
2023/03/16 03:15:26;;;;;;;10.97;2.43;;;;;;;;;;4965284;28;20054;-56
2023/03/16 03:17:53;;;;;;;;;;;;;;;;;;4970906;28;20047;-62
2023/03/16 03:20:27;;;;;;;4.70;2.17;;;;;;;;;;4972786;28;20294;-51
2023/03/16 03:22:54;;;;;;;6.00;2.37;;;;;;;;;;4972377;28;20222;-53
2023/03/16 03:25:22;;;;;;;;;;;;;;;;;;4974602;28;20055;-51
2023/03/16 03:27:55;;;;;;;3.87;1.67;;;;;;;;;;4968826;28;19930;-49
2023/03/16 03:30:23;;;;;;;;;;;;;;;;;;4973733;28;20050;-49
2023/03/16 03:32:57;;;;;;;5.40;3.37;;;;;;;;;;4968918;28;20009;-53
2023/03/16 03:35:25;;;;;;;8.00;2.10;;;;;;;;;;4973063;28;20055;-51
2023/03/16 03:37:52;;;;;;;;;;;;;;;;;;4973397;28;20051;-44
2023/03/16 03:40:26;;;;;;;7.77;2.03;;;;;;;;;;4959810;28;19944;-46
2023/03/16 03:42:53;;;;;;;4.77;1.80;;;;;;;;;;4966945;28;20621;-49
2023/03/16 03:45:34;;;;;;;6.77;1.93;;;;;;;;;;4975137;28;20061;-51
2023/03/16 03:48:01;;;;;;;4.33;1.80;;;;;;;;;;4991786;28;20104;-52
2023/03/16 03:50:37;;;;;;;5.33;2.17;;;;;;;;;;4988872;28;20140;-48
2023/03/16 03:53:11;;;;;;;9.63;2.77;;;;;;;;;;4991563;28;20136;-54
2023/03/16 03:55:38;;;;;;;;;;;;;;;;;;4990622;28;20057;-56
2023/03/16 03:58:12;;;;;;;12.90;2.00;;;;;;;;;;4993121;28;20398;-51
2023/03/16 04:00:39;;;;;;;;;;;;;;;;;;4989589;28;20459;-48
2023/03/16 04:03:06;;;;;;;5.77;2.10;;;;;;;;;;4989507;28;20719;-47
2023/03/16 04:05:40;;;;;;;10.53;2.60;;;;;;;;;;4987779;28;20051;-53
2023/03/16 04:08:07;;;;;;;11.23;2.40;;;;;;;;;;4991674;28;20554;-47
2023/03/16 04:10:41;;;;;;;8.80;2.43;;;;;;;;;;4993026;28;20568;-45
2023/03/16 04:13:08;;;;;;;;;;;;;;;;;;4987863;28;20133;-63
2023/03/16 04:15:37;;;;;;;9.73;2.27;;;;;;;;;;4991163;28;20305;-63
2023/03/16 04:18:11;;;;;;;9.53;2.90;;;;;;;;;;4993156;28;20049;-62
2023/03/16 04:20:39;;;;;;;8.13;2.67;;;;;;;;;;4986584;28;20113;-62
2023/03/16 04:23:15;;;;;;;7.60;2.10;;;;;;;;;;4989343;28;20350;-63
2023/03/16 04:25:44;;;;;;;4.03;2.40;;;;;;;;;;4993342;28;20506;-62
2023/03/16 04:28:11;;;;;;;8.87;2.73;;;;;;;;;;4987843;28;20049;-62
2023/03/16 04:30:45;;;;;;;7.80;2.50;;;;;;;;;;4986353;28;20057;-63
2023/03/16 04:33:13;;;;;;;;;;;;;;;;;;4989325;28;20622;-63
2023/03/16 04:35:40;;;;;;;7.07;2.10;;;;;;;;;;4987727;28;19980;-63
2023/03/16 04:38:14;;;;;;;4.67;2.10;;;;;;;;;;4993279;28;20088;-63
2023/03/16 04:40:41;;;;;;;6.32;1.88;;;;;;;;;;4991520;28;20437;-63
2023/03/16 04:43:15;;;;;;;6.20;2.00;;;;;;;;;;4986361;28;20077;-63
2023/03/16 04:45:56;;;;;;;7.40;2.40;;;;;;;;;;4987902;28;20149;-62
2023/03/16 04:48:33;;;;;;;8.68;2.05;;;;;;;;;;4986662;28;20053;-64
2023/03/16 04:51:02;;;;;;;4.47;1.73;;;;;;;;;;4988360;28;20556;-62
2023/03/16 04:53:30;;;;;;;4.47;1.77;;;;;;;;;;4992639;28;20109;-63
2023/03/16 04:56:06;;;;;;;8.83;2.00;;;;;;;;;;4988495;28;20057;-63
2023/03/16 04:58:33;;;;;;;7.27;2.03;;;;;;;;;;4986224;28;20514;-63
2023/03/16 05:01:01;;;;;;;6.37;2.10;;;;;;;;;;4987883;28;20093;-53
2023/03/16 05:03:35;;;;;;;6.43;2.00;;;;;;;;;;4986886;28;20113;-51
2023/03/16 05:06:02;;;;;;;;;;;;;;;;;;4988006;28;20058;-51
2023/03/16 05:08:36;;;;;;;7.27;1.83;;;;;;;;;;4988860;28;19930;-55
2023/03/16 05:11:03;;;;;;;;;;;;;;;;;;4994763;28;20168;-52
2023/03/16 05:13:30;;;;;;;8.03;2.23;;;;;;;;;;4987207;28;19921;-53
2023/03/16 05:16:04;;;;;;;4.77;2.37;;;;;;;;;;4986073;28;22634;-50
2023/03/16 05:18:32;;;;;;;5.10;2.33;;;;;;;;;;4985151;28;20531;-62
2023/03/16 05:20:59;;;;;;;3.33;1.67;;;;;;;;;;4986466;28;20362;-63
2023/03/16 05:23:33;;;;;;;10.40;2.47;;;;;;;;;;4989338;28;20054;-63
2023/03/16 05:26:01;;;;;;;10.03;1.97;;;;;;;;;;4991874;28;20136;-64
2023/03/16 05:28:28;;;;;;;9.17;2.40;;;;;;;;;;4983328;28;20086;-63
2023/03/16 05:31:09;;;;;;;5.90;2.60;;;;;;;;;;4986716;28;20425;-63
2023/03/16 05:33:36;;;;;;;3.50;2.20;;;;;;;;;;4988978;28;20679;-50
2023/03/16 05:36:11;;;;;;;6.50;2.27;;;;;;;;;;4986195;28;20430;-51
2023/03/16 05:38:39;;;;;;;4.57;1.70;;;;;;;;;;4991208;28;20494;-53
2023/03/16 05:41:06;;;;;;;6.60;2.25;;;;;;;;;;4988455;28;21024;-52
2023/03/16 05:43:40;;;;;;;4.30;2.07;;;;;;;;;;4984635;28;20055;-53
2023/03/16 05:46:13;;;;;;;5.47;2.30;;;;;;;;;;4985602;28;20066;-52
2023/03/16 05:48:47;;;;;;;5.13;2.07;;;;;;;;;;4985005;28;20506;-55
2023/03/16 05:51:14;;;;;;;;;;;;;;;;;;4986760;28;20137;-57
2023/03/16 05:53:45;;;;;;;3.13;1.60;;;;;;;;;;4991830;28;19932;-51
2023/03/16 05:56:19;;;;;;;4.38;2.40;;;;;;;;;;4986638;28;20042;-50
2023/03/16 05:58:46;;;;;;;13.07;1.83;;;;;;;;;;4984045;28;20145;-53
2023/03/16 06:01:14;;;;;;;8.88;2.40;;;;;;;;;;4993210;28;20046;-53
2023/03/16 06:03:48;;;;;;;4.33;1.90;;;;;;;;;;4985172;28;20046;-57
2023/03/16 06:06:16;;;;;;;4.37;1.80;;;;;;;;;;4983891;28;20799;-58
2023/03/16 06:08:50;;;;;;;6.60;1.90;;;;;;;;;;4982342;28;20077;-59
2023/03/16 06:11:17;;;;;;;7.77;2.10;;;;;;;;;;4989040;28;20046;-51
2023/03/16 06:13:44;;;;;;;;;;;;;;;;;;4986101;28;20224;-60
2023/03/16 06:16:18;;;;;;;2.43;1.63;;;;;;;;;;4985358;28;19932;-53
2023/03/16 06:18:45;;;;;;;5.40;2.00;;;;;;;;;;4980837;28;20478;-56
2023/03/16 06:21:12;;;;;;;6.88;2.42;;;;;;;;;;4986026;28;20057;-53
2023/03/16 06:23:46;;;;;;;8.23;2.17;;;;;;;;;;4976835;28;20057;-56
2023/03/16 06:26:13;;;;;;;;;;;;;;;;;;4982058;28;20685;-55
2023/03/16 06:28:47;;;;;;;4.90;2.00;;;;;;;;;;4987796;28;19930;-56
2023/03/16 06:31:15;;;;;;;7.23;1.80;;;;;;;;;;4987651;28;20502;-58
2023/03/16 06:33:42;;;;;;;8.68;1.90;;;;;;;;;;4982112;28;20757;-45
2023/03/16 06:36:16;;;;;;;6.50;1.93;;;;;;;;;;4986310;28;20137;-46
2023/03/16 06:38:43;;;;;;;;;;;;;;;;;;4992553;28;20050;-45
2023/03/16 06:41:10;;;;;;;3.60;1.60;;;;;;;;;;4984363;28;19921;-50
2023/03/16 06:43:44;;;;;;;3.03;1.70;;;;;;;;;;4985943;28;20057;-45
2023/03/16 06:46:11;;;;;;;;;;;;;;;;;;4987658;28;20050;-46
2023/03/16 06:48:46;;;;;;;9.87;2.17;;;;;;;;;;4988570;28;19948;-63
2023/03/16 06:51:13;;;;;;;5.53;1.77;;;;;;;;;;4986267;28;20065;-63
2023/03/16 06:53:42;;;;;;;8.70;2.10;;;;;;;;;;4992824;28;20078;-63
2023/03/16 06:56:16;;;;;;;5.13;1.77;;;;;;;;;;4991100;28;20058;-63
2023/03/16 06:58:43;;;;;;;6.72;2.20;;;;;;;;;;4986976;28;20510;-50
2023/03/16 07:01:11;;;;;;;8.13;2.03;;;;;;;;;;4990503;28;20955;-60
2023/03/16 07:03:45;;;;;;;6.73;2.10;;;;;;;;;;4989008;28;20051;-60
2023/03/16 07:06:12;;;;;;;;;;;;;;;;;;4986682;28;20109;-60
2023/03/16 07:08:46;;;;;;;19.37;3.03;;;;;;;;;;4984048;28;19926;-60
2023/03/16 07:11:14;;;;;;;9.83;2.97;;;;;;;;;;4988586;28;20053;-60
2023/03/16 07:13:41;;;;;;;13.07;2.47;;;;;;;;;;4982793;28;20046;-61
2023/03/16 07:16:15;;;;;;;7.65;2.20;;;;;;;;;;4991677;28;20093;-57
2023/03/16 07:18:43;;;;;;;11.70;2.42;;;;;;;;;;4987793;28;20061;-58
2023/03/16 07:21:17;;;;;;;5.45;2.03;;;;;;;;;;4990324;28;20479;-55
2023/03/16 07:23:44;;;;;;;;;;;;;;;;;;4992284;28;20055;-57
2023/03/16 07:26:12;;;;;;;11.15;2.38;;;;;;;;;;4988168;28;19944;-55
2023/03/16 07:28:46;;;;;;;9.65;2.08;;;;;;;;;;4988481;28;20050;-60
2023/03/16 07:31:13;;;;;;;8.82;2.17;;;;;;;;;;4989397;28;20554;-63
2023/03/16 07:33:47;;;;;;;15.98;3.08;;;;;;;;;;4988513;28;20552;-62
2023/03/16 07:36:14;;;;;;;6.80;2.13;;;;;;;;;;4990253;28;20054;-63
2023/03/16 07:38:41;;;;;;;6.85;2.00;;;;;;;;;;4991697;28;20054;-62
2023/03/16 07:41:15;;;;;;;14.48;2.50;;;;;;;;;;4992115;28;20140;-62
2023/03/16 07:43:43;;;;;;;13.82;2.53;;;;;;;;;;4991524;28;20056;-62
2023/03/16 07:46:24;;;;;;;7.85;2.17;;;;;;;;;;4989747;28;20045;-51
2023/03/16 07:48:58;;;;;;;12.00;2.38;;;;;;;;;;4987078;28;20058;-54
2023/03/16 07:51:31;;;;;;;4.90;2.25;;;;;;;;;;4992973;28;20072;-52
2023/03/16 07:53:59;;;;;;;8.57;2.65;;;;;;;;;;4992544;28;20046;-55
2023/03/16 07:56:26;;;;;;;5.95;2.20;;;;;;;;;;4990520;28;20050;-63
2023/03/16 07:59:14;;;;;;;8.75;2.58;;;;;;;;;;4989699;28;20058;-63
2023/03/16 08:01:42;;;;;;;7.10;2.40;;;;;;;;;;4991260;28;20150;-63
2023/03/16 08:04:15;;;;;;;7.60;2.13;;;;;;;;;;4987949;28;20050;-63
2023/03/16 08:06:42;;;;;;;6.90;2.42;;;;;;;;;;4984647;28;20053;-63
2023/03/16 08:09:10;;;;;;;10.07;2.58;;;;;;;;;;4992342;28;20096;-63
2023/03/16 08:11:44;;;;;;;8.63;2.58;;;;;;;;;;4993672;28;20047;-63
2023/03/16 08:14:11;;;;;;;7.82;2.30;;;;;;;;;;4991812;28;20084;-54
2023/03/16 08:16:46;;;;;;;13.10;2.50;;;;;;;;;;4989184;28;20141;-55
2023/03/16 08:19:13;;;;;;;7.47;2.20;;;;;;;;;;4986912;28;20093;-54
2023/03/16 08:21:41;;;;;;;13.32;2.70;;;;;;;;;;4992811;28;20077;-51
2023/03/16 08:24:28;;;;;;;9.10;2.42;;;;;;;;;;4988445;28;20054;-51
2023/03/16 08:26:56;;;;;;;5.53;2.25;;;;;;;;;;4989176;28;20498;-63
2023/03/16 08:29:33;;;;;;;9.82;2.70;;;;;;;;;;4987300;28;20058;-63
2023/03/16 08:32:00;;;;;;;8.98;2.60;;;;;;;;;;4991480;28;20077;-62
2023/03/16 08:34:27;;;;;;;;;;;;;;;;;;4990508;28;20046;-63
2023/03/16 08:37:01;;;;;;;5.35;2.33;;;;;;;;;;4993283;28;20389;-63
2023/03/16 08:39:28;;;;;;;9.40;2.35;;;;;;;;;;4986576;28;20142;-64
2023/03/16 08:42:02;;;;;;;5.75;2.30;;;;;;;;;;4996139;28;20054;-64
2023/03/16 08:44:29;;;;;;;4.68;2.60;;;;;;;;;;4990157;28;20137;-63
2023/03/16 08:46:56;;;;;;;6.25;2.67;;;;;;;;;;4988569;28;21721;-64
2023/03/16 08:49:30;;;;;;;5.30;2.33;;;;;;;;;;4988622;28;20520;-64
2023/03/16 08:51:59;;;;;;;12.25;2.47;;;;;;;;;;4986373;28;20469;-58
2023/03/16 08:54:33;;;;;;;10.20;2.17;;;;;;;;;;4989473;28;20137;-48
2023/03/16 08:57:01;;;;;;;10.40;1.90;;;;;;;;;;4989387;28;20050;-57
2023/03/16 08:59:28;;;;;;;7.60;2.08;;;;;;;;;;4992895;28;20145;-60
2023/03/16 09:02:03;;;;;;;8.80;2.42;;;;;;;;;;4986712;28;20102;-60
2023/03/16 09:04:31;;;;;;;10.52;2.25;;;;;;;;;;4989471;28;20039;-58
2023/03/16 09:06:59;;;;;;;12.43;2.08;;;;;;;;;;4991279;28;20066;-58
2023/03/16 09:09:35;;;;;;;10.38;2.10;;;;;;;;;;4990123;28;20066;-59
2023/03/16 09:12:04;;;;;;;6.57;1.75;;;;;;;;;;4988755;28;20149;-57
2023/03/16 09:14:32;;;;;;;11.25;2.22;;;;;;;;;;4985446;28;20055;-58
2023/03/16 09:17:10;;;;;;;7.85;1.60;;;;;;;;;;4988015;28;20503;-56
2023/03/16 09:19:37;;;;;;;7.82;1.98;;;;;;;;;;4987465;28;20050;-60
2023/03/16 09:22:19;;;;;;;7.65;1.85;;;;;;;;;;4987713;28;20105;-60
2023/03/16 09:24:47;;;;;;;7.97;1.92;;;;;;;;;;4987379;28;20050;-65
2023/03/16 09:27:21;;;;;;;3.97;1.92;;;;;;;;;;4989747;28;20053;-65
2023/03/16 09:29:49;;;;;;;3.80;1.70;;;;;;;;;;4986152;28;20082;-66
2023/03/16 09:32:23;;;;;;;5.10;1.65;;;;;;;;;;4984694;28;20092;-66
2023/03/16 09:34:50;;;;;;;7.65;2.03;;;;;;;;;;4987775;28;20108;-65
2023/03/16 09:37:17;;;;;;;6.03;1.85;;;;;;;;;;4988488;28;20164;-65
2023/03/16 09:39:52;;;;;;;7.03;2.20;;;;;;;;;;4986382;28;20082;-47
2023/03/16 09:42:26;;;;;;;7.10;1.52;;;;;;;;;;4992480;28;20057;-51
2023/03/16 09:45:15;;;;;;;5.43;1.65;;;;;;;;;;4991831;28;20150;-51
2023/03/16 09:47:50;;;;;;;6.13;1.70;;;;;;;;;;4967508;28;20061;-52
2023/03/16 09:50:26;;;;;;;4.07;1.58;;;;;;;;;;4972439;28;20058;-65
2023/03/16 09:53:08;;;;;;;7.70;2.17;;;;;;;;;;4969092;28;20074;-65
2023/03/16 09:55:42;;;;;;;;;;;;;;;;;;4967907;28;20094;-65
2023/03/16 09:58:31;;;;;;;4.05;1.80;;;;;;;;;;4967454;28;20012;-65
2023/03/16 10:01:17;;;;;;;7.63;1.67;;;;;;;;;;4967807;28;20138;-65
2023/03/16 10:03:45;;;;;;;6.88;1.73;;;;;;;;;;4967875;28;20090;-65
2023/03/16 10:06:19;;;;;;;3.22;1.50;;;;;;;;;;4972353;28;20054;-64
2023/03/16 10:08:53;;;;;;;13.45;1.83;;;;;;;;;;4964300;28;20061;-59
2023/03/16 10:11:37;;;;;;;4.63;1.80;;;;;;;;;;4971311;28;20426;-59
2023/03/16 10:14:04;;;;;;;6.00;1.90;;;;;;;;;;4967892;28;20128;-59
2023/03/16 10:16:41;;;;;;;5.68;1.38;;;;;;;;;;4968666;28;20165;-59
2023/03/16 10:19:25;;;;;;;3.95;1.30;;;;;;;;;;4971322;28;20058;-48
2023/03/16 10:21:59;;;;;;;4.05;1.60;;;;;;;;;;4968143;28;20114;-63
2023/03/16 10:24:52;;;;;;;7.18;1.75;;;;;;;;;;4972372;28;20109;-63
2023/03/16 10:27:29;;;;;;;8.30;1.90;;;;;;;;;;4973124;28;20065;-62
2023/03/16 10:30:06;;;;;;;7.18;2.05;;;;;;;;;;4975220;28;20134;-63
2023/03/16 10:32:41;;;;;;;4.22;1.40;;;;;;;;;;4973379;28;20471;-62
2023/03/16 10:35:21;;;;;;;2.92;1.40;;;;;;;;;;4974398;28;20054;-63
2023/03/16 10:37:56;;;;;;;9.02;1.55;;;;;;;;;;4971864;28;20116;-62
2023/03/16 10:40:31;;;;;;;7.97;1.90;;;;;;;;;;4969003;28;20161;-63
2023/03/16 10:43:14;;;;;;;3.90;1.45;;;;;;;;;;4971143;28;20146;-62
2023/03/16 10:45:49;;;;;;;5.25;1.50;;;;;;;;;;4979222;28;20149;-65
2023/03/16 10:48:32;;;;;;;4.25;1.27;;;;;;;;;;4991543;28;20395;-63
2023/03/16 10:51:03;;;;;;;5.93;1.42;;;;;;;;;;4992036;28;20061;-51
2023/03/16 10:53:40;;;;;;;5.30;1.50;;;;;;;;;;4987399;28;20113;-49
2023/03/16 10:56:12;;;;;;;4.88;1.52;;;;;;;;;;4991646;28;20141;-53
2023/03/16 10:58:46;;;;;;;6.28;1.38;;;;;;;;;;4991992;28;20046;-49
2023/03/16 11:01:28;;;;;;;5.30;1.63;;;;;;;;;;4990593;28;20137;-50
2023/03/16 11:04:01;;;;;;;4.97;1.10;;;;;;;;;;4988246;28;20565;-52
2023/03/16 11:06:35;;;;;;;5.93;1.40;;;;;;;;;;4991816;28;20054;-59
2023/03/16 11:09:15;;;;;;;9.18;1.70;;;;;;;;;;4997714;28;20047;-54
2023/03/16 11:11:47;;;;;;;4.15;1.33;;;;;;;;;;4988533;28;20150;-55
2023/03/16 11:14:25;;;;;;;6.07;1.50;;;;;;;;;;4989847;28;20065;-58
2023/03/16 11:17:15;;;;;;;4.35;1.33;;;;;;;;;;4989747;28;20080;-65
2023/03/16 11:19:56;;;;;;;3.53;1.60;;;;;;;;;;4989783;28;20146;-47
2023/03/16 11:22:31;;;;;;;5.35;1.48;;;;;;;;;;4988913;28;20125;-50
2023/03/16 11:25:14;;;;;;;7.47;1.75;;;;;;;;;;4993323;28;20066;-49
2023/03/16 11:27:47;;;;;;;6.47;1.50;;;;;;;;;;4994915;28;20101;-53
2023/03/16 11:30:34;;;;;;;5.50;1.55;;;;;;;;;;4991785;28;20054;-48
2023/03/16 11:33:01;;;;;;;7.65;1.50;;;;;;;;;;4990744;28;20096;-53
2023/03/16 11:35:35;;;;;;;4.32;1.30;;;;;;;;;;4988314;28;20426;-58
2023/03/16 11:38:17;;;;;;;5.00;1.45;;;;;;;;;;4992820;28;20049;-53
2023/03/16 11:41:02;;;;;;;2.33;1.17;;;;;;;;;;4987590;28;20050;-51
2023/03/16 11:43:29;;;;;;;;;;;;;;;;;;4989519;28;20073;-56
2023/03/16 11:46:28;;;;;;;6.93;1.60;;;;;;;;;;4989138;28;20432;-53
2023/03/16 11:49:14;;;;;;;3.80;1.30;;;;;;;;;;4987778;28;20066;-55
2023/03/16 11:51:54;;;;;;;5.20;1.80;;;;;;;;;;4987808;28;20061;-56
2023/03/16 11:54:47;;;;;;;4.18;1.35;;;;;;;;;;4993324;28;20603;-58
2023/03/16 11:57:40;;;;;;;3.35;1.35;;;;;;;;;;4988380;28;20520;-56
2023/03/16 12:00:13;;;;;;;6.93;1.60;;;;;;;;;;4990603;28;20060;-55
2023/03/16 12:02:54;;;;;;;5.85;1.50;;;;;;;;;;4987928;28;20449;-56
2023/03/16 12:05:27;;;;;;;9.15;1.58;;;;;;;;;;4987697;28;20065;-53
2023/03/16 12:08:11;;;;;;;5.40;1.63;;;;;;;;;;4992580;28;20050;-56
2023/03/16 12:10:48;;;;;;;4.07;1.63;;;;;;;;;;4991578;28;20060;-56
2023/03/16 12:13:29;;;;;;;3.47;1.73;;;;;;;;;;4986896;28;20093;-57
2023/03/16 12:16:00;;;;;;;3.05;1.70;;;;;;;;;;4992826;28;20133;-58
2023/03/16 12:18:39;;;;;;;9.25;1.70;;;;;;;;;;4994109;28;20418;-59
2023/03/16 12:21:24;;;;;;;5.80;1.52;;;;;;;;;;4993541;28;20144;-57
2023/03/16 12:24:01;;;;;;;7.05;1.30;;;;;;;;;;4987138;28;20061;-52
2023/03/16 12:26:31;;;;;;;7.25;1.55;;;;;;;;;;4984103;28;20050;-58
2023/03/16 12:29:28;;;;;;;4.03;1.80;;;;;;;;;;4991331;28;20140;-59
2023/03/16 12:31:58;;;;;;;7.13;1.90;;;;;;;;;;4984734;28;20054;-52
2023/03/16 12:34:35;;;;;;;3.22;1.27;;;;;;;;;;4984364;28;20054;-58
2023/03/16 12:37:06;;;;;;;7.45;1.45;;;;;;;;;;4989975;28;20124;-54
2023/03/16 12:39:39;;;;;;;3.00;1.27;;;;;;;;;;4988269;28;20064;-57
2023/03/16 12:42:12;;;;;;;3.53;1.30;;;;;;;;;;4987145;28;20152;-56
2023/03/16 12:45:06;;;;;;;3.67;1.40;;;;;;;;;;4989746;28;20054;-58
2023/03/16 12:47:41;;;;;;;4.97;1.40;;;;;;;;;;4987127;28;20058;-58
2023/03/16 12:50:24;;;;;;;3.35;1.52;;;;;;;;;;4985212;28;20634;-54
2023/03/16 12:52:52;;;;;;;6.70;1.92;;;;;;;;;;4991271;28;20139;-55
2023/03/16 12:55:39;;;;;;;3.50;1.58;;;;;;;;;;4987389;28;20057;-55
2023/03/16 12:58:08;;;;;;;6.05;1.42;;;;;;;;;;4985254;28;20046;-55
2023/03/16 13:00:43;;;;;;;3.40;1.40;;;;;;;;;;4991655;28;20056;-57
2023/03/16 13:03:14;;;;;;;4.95;1.85;;;;;;;;;;4988632;28;20050;-59
2023/03/16 13:05:48;;;;;;;;;;;;;;;;;;4987464;28;20133;-57
2023/03/16 13:08:16;;;;;;;3.53;1.35;;;;;;;;;;4989475;28;19931;-55
2023/03/16 13:11:08;;;;;;;5.78;1.38;;;;;;;;;;4988598;28;20046;-56
2023/03/16 13:13:46;;;;;;;3.20;1.27;;;;;;;;;;4988097;28;20144;-56
2023/03/16 13:16:26;;;;;;;5.57;1.40;;;;;;;;;;4987878;28;20129;-54
2023/03/16 13:18:53;;;;;;;3.25;1.17;;;;;;;;;;4989013;28;20128;-56
2023/03/16 13:21:35;;;;;;;6.70;1.58;;;;;;;;;;4988469;28;20137;-52
2023/03/16 13:24:12;;;;;;;4.60;1.83;;;;;;;;;;4989815;28;20701;-57
2023/03/16 13:26:48;;;;;;;2.60;1.40;;;;;;;;;;4990619;28;20046;-52
2023/03/16 13:29:15;;;;;;;5.40;1.83;;;;;;;;;;4988836;28;20062;-54
2023/03/16 13:31:42;;;;;;;6.90;1.45;;;;;;;;;;4982715;28;20123;-51
2023/03/16 13:34:22;;;;;;;5.03;1.95;;;;;;;;;;4987809;28;20267;-51
2023/03/16 13:37:04;;;;;;;3.70;1.60;;;;;;;;;;4990461;28;20069;-57
2023/03/16 13:39:45;;;;;;;3.85;1.50;;;;;;;;;;4991520;28;20701;-52
2023/03/16 13:42:20;;;;;;;6.47;1.80;;;;;;;;;;4988686;28;20508;-57
2023/03/16 13:44:47;;;;;;;7.25;1.92;;;;;;;;;;4982055;28;20181;-57
2023/03/16 13:47:15;;;;;;;6.38;2.00;;;;;;;;;;4987808;28;20418;-49
2023/03/16 13:49:50;;;;;;;6.28;2.22;;;;;;;;;;4986626;28;20414;-53
2023/03/16 13:52:24;;;;;;;3.53;1.58;;;;;;;;;;4988016;28;20509;-58
2023/03/16 13:54:59;;;;;;;7.75;1.38;;;;;;;;;;4992530;28;20081;-54
2023/03/16 13:57:37;;;;;;;4.63;1.45;;;;;;;;;;4984773;28;20112;-58
2023/03/16 14:00:14;;;;;;;3.85;1.70;;;;;;;;;;4985493;28;20078;-53
2023/03/16 14:02:53;;;;;;;4.25;1.77;;;;;;;;;;4984194;28;20488;-57
2023/03/16 14:05:21;;;;;;;5.10;1.50;;;;;;;;;;4986916;28;20509;-57
2023/03/16 14:07:58;;;;;;;5.95;1.60;;;;;;;;;;4984247;28;20121;-53
2023/03/16 14:10:28;;;;;;;7.07;1.92;;;;;;;;;;4985742;28;20066;-55
2023/03/16 14:13:21;;;;;;;3.25;1.25;;;;;;;;;;4991982;28;20140;-57
2023/03/16 14:15:49;;;;;;;9.00;1.67;;;;;;;;;;4988308;28;20510;-56
2023/03/16 14:18:24;;;;;;;3.58;1.23;;;;;;;;;;4988502;28;20407;-57
2023/03/16 14:20:52;;;;;;;5.25;1.60;;;;;;;;;;4984821;28;20300;-56
2023/03/16 14:23:23;;;;;;;7.18;1.27;;;;;;;;;;4986105;28;20058;-58
2023/03/16 14:25:57;;;;;;;6.70;1.48;;;;;;;;;;4984215;28;20054;-56
2023/03/16 14:28:29;;;;;;;5.50;1.77;;;;;;;;;;4987981;28;20144;-55
2023/03/16 14:31:09;;;;;;;3.58;1.38;;;;;;;;;;4992028;28;20053;-56
2023/03/16 14:33:39;;;;;;;2.75;0.98;;;;;;;;;;4986978;28;20112;-56
2023/03/16 14:36:13;;;;;;;4.10;1.40;;;;;;;;;;4984277;28;20057;-57
2023/03/16 14:38:42;;;;;;;5.50;1.88;;;;;;;;;;4985887;28;20136;-58
2023/03/16 14:41:25;;;;;;;4.63;1.50;;;;;;;;;;4985742;28;20080;-58
2023/03/16 14:43:56;;;;;;;5.60;1.60;;;;;;;;;;4979436;28;20366;-58
2023/03/16 14:46:44;;;;;;;3.20;1.55;;;;;;;;;;4985229;28;20141;-55
2023/03/16 14:49:21;;;;;;;7.18;1.52;;;;;;;;;;4988994;28;20581;-55
2023/03/16 14:51:59;;;;;;;3.67;1.20;;;;;;;;;;4988334;28;20374;-55
2023/03/16 14:54:26;;;;;;;6.38;1.52;;;;;;;;;;4985013;28;20054;-56
2023/03/16 14:56:55;;;;;;;8.25;1.88;;;;;;;;;;4985406;28;20150;-55
2023/03/16 14:59:29;;;;;;;5.88;1.75;;;;;;;;;;4983778;28;20061;-54
2023/03/16 15:01:56;;;;;;;6.72;1.73;;;;;;;;;;4988573;28;20109;-57
2023/03/16 15:04:32;;;;;;;6.22;2.00;;;;;;;;;;4984860;28;20051;-58
2023/03/16 15:07:01;;;;;;;6.15;1.60;;;;;;;;;;4987694;28;20440;-55
2023/03/16 15:09:28;;;;;;;9.48;1.33;;;;;;;;;;4987950;28;20873;-57
2023/03/16 15:12:01;;;;;;;5.35;1.70;;;;;;;;;;4988158;28;20129;-55
2023/03/16 15:17:21;;;;;;;6.90;1.83;;;;;;;;;;4991106;28;20028;-56
2023/03/16 15:19:49;;;;;;;6.15;1.80;;;;;;;;;;4991138;28;20733;-54
2023/03/16 15:22:37;;;;;;;5.47;1.40;;;;;;;;;;4996384;28;20211;-52
2023/03/16 15:25:16;;;;;;;6.35;1.85;;;;;;;;;;4991853;28;20140;-57
2023/03/16 15:27:51;;;;;;;7.55;2.00;;;;;;;;;;4987262;28;20176;-53
2023/03/16 15:30:27;;;;;;;7.97;1.60;;;;;;;;;;4992010;28;20054;-57